createdAt,value
2023-01-19T00:00:57.046Z,6.77
2023-01-19T00:03:24.547Z,6.76
2023-01-19T00:05:52.155Z,6.75
2023-01-19T00:08:19.204Z,6.73
2023-01-19T00:10:51.149Z,6.71
2023-01-19T00:13:18.023Z,6.70
2023-01-19T00:15:44.985Z,6.67
2023-01-19T00:18:11.862Z,6.65
2023-01-19T00:20:39.949Z,6.63
2023-01-19T00:23:08.373Z,6.61
2023-01-19T00:25:36.110Z,6.57
2023-01-19T00:28:03.123Z,6.54
2023-01-19T00:30:30.095Z,6.50
2023-01-19T00:33:02.071Z,6.46
2023-01-19T00:35:32.460Z,6.43
2023-01-19T00:37:59.755Z,6.42
2023-01-19T00:40:26.645Z,6.38
2023-01-19T00:42:53.694Z,6.36
2023-01-19T00:45:21.991Z,6.36
2023-01-19T00:47:50.479Z,6.35
2023-01-19T00:50:17.499Z,6.32
2023-01-19T00:52:44.626Z,6.28
2023-01-19T00:55:13.147Z,6.25
2023-01-19T00:57:40.550Z,6.24
2023-01-19T01:00:11.343Z,6.23
2023-01-19T01:02:40.092Z,6.22
2023-01-19T01:05:07.673Z,6.20
2023-01-19T01:07:40.812Z,6.18
2023-01-19T01:10:13.849Z,6.17
2023-01-19T01:12:41.418Z,6.13
2023-01-19T01:15:23.077Z,6.09
2023-01-19T01:17:53.149Z,6.06
2023-01-19T01:20:22.051Z,6.04
2023-01-19T01:22:50.521Z,6.03
2023-01-19T01:25:19.003Z,6.03
2023-01-19T01:27:45.881Z,6.02
2023-01-19T01:30:13.892Z,6.02
2023-01-19T01:32:41.178Z,6.01
2023-01-19T01:35:09.160Z,6.03
2023-01-19T01:37:36.997Z,6.05
2023-01-19T01:40:05.252Z,6.05
2023-01-19T01:42:32.654Z,6.05
2023-01-19T01:45:02.144Z,6.06
2023-01-19T01:47:31.726Z,6.07
2023-01-19T01:50:09.948Z,6.09
2023-01-19T01:52:39.019Z,6.10
2023-01-19T01:55:07.313Z,6.10
2023-01-19T01:57:39.091Z,6.12
2023-01-19T02:00:06.659Z,6.15
2023-01-19T02:02:55.249Z,6.18
2023-01-19T02:05:23.669Z,6.20
2023-01-19T02:08:09.334Z,6.22
2023-01-19T02:10:54.855Z,6.24
2023-01-19T02:13:21.934Z,6.26
2023-01-19T02:15:53.360Z,6.28
2023-01-19T02:18:21.490Z,6.29
2023-01-19T02:20:53.810Z,6.30
2023-01-19T02:23:47.796Z,6.31
2023-01-19T02:26:20.661Z,6.31
2023-01-19T02:28:57.618Z,6.29
2023-01-19T02:31:24.893Z,6.28
2023-01-19T02:33:51.798Z,6.28
2023-01-19T02:36:21.331Z,6.28
2023-01-19T02:38:48.294Z,6.29
2023-01-19T02:41:19.711Z,6.30
2023-01-19T02:43:46.609Z,6.31
2023-01-19T02:46:14.387Z,6.32
2023-01-19T02:48:41.896Z,6.33
2023-01-19T02:51:12.705Z,6.33
2023-01-19T02:53:48.745Z,6.33
2023-01-19T02:56:23.493Z,6.34
2023-01-19T02:59:32.328Z,6.33
2023-01-19T03:02:18.531Z,6.31
2023-01-19T03:04:48.612Z,6.29
2023-01-19T03:07:50.904Z,6.27
2023-01-19T03:10:26.553Z,6.25
2023-01-19T03:13:03.607Z,6.24
2023-01-19T03:15:38.929Z,6.21
2023-01-19T03:18:06.984Z,6.21
2023-01-19T03:20:34.038Z,6.19
2023-01-19T03:23:03.497Z,6.18
2023-01-19T03:25:32.080Z,6.19
2023-01-19T03:27:59.036Z,6.19
2023-01-19T03:30:30.937Z,6.20
2023-01-19T03:33:13.225Z,6.22
2023-01-19T03:35:42.366Z,6.23
2023-01-19T03:38:12.525Z,6.23
2023-01-19T03:40:39.360Z,6.25
2023-01-19T03:43:06.212Z,6.26
2023-01-19T03:45:33.643Z,6.29
2023-01-19T03:48:00.507Z,6.31
2023-01-19T03:50:28.888Z,6.33
2023-01-19T03:53:10.067Z,6.34
2023-01-19T03:55:37.927Z,6.34
2023-01-19T03:58:04.873Z,6.33
2023-01-19T04:00:31.667Z,6.33
2023-01-19T04:02:58.991Z,6.33
2023-01-19T04:05:26.134Z,6.34
2023-01-19T04:07:53.168Z,6.35
2023-01-19T04:10:20.064Z,6.36
2023-01-19T04:12:47.107Z,6.36
2023-01-19T04:15:14.010Z,6.37
2023-01-19T04:17:41.047Z,6.38
2023-01-19T04:20:09.022Z,6.39
2023-01-19T04:22:36.000Z,6.41
2023-01-19T04:25:03.426Z,6.42
2023-01-19T04:27:30.527Z,6.44
2023-01-19T04:29:57.392Z,6.45
2023-01-19T04:32:24.371Z,6.46
2023-01-19T04:34:51.797Z,6.47
2023-01-19T04:37:18.613Z,6.47
2023-01-19T04:39:45.440Z,6.47
2023-01-19T04:42:12.347Z,6.48
2023-01-19T04:44:39.276Z,6.49
2023-01-19T04:47:06.531Z,6.50
2023-01-19T04:49:33.351Z,6.52
2023-01-19T04:52:01.282Z,6.52
2023-01-19T04:54:28.151Z,6.51
2023-01-19T04:56:55.246Z,6.52
2023-01-19T04:59:22.118Z,6.53
2023-01-19T05:01:49.085Z,6.54
2023-01-19T05:04:16.289Z,6.55
2023-01-19T05:06:43.072Z,6.57
2023-01-19T05:09:13.167Z,6.58
2023-01-19T05:11:40.076Z,6.59
2023-01-19T05:14:07.101Z,6.59
2023-01-19T05:16:34.814Z,6.59
2023-01-19T05:19:01.636Z,6.59
2023-01-19T05:21:28.708Z,6.61
2023-01-19T05:23:55.520Z,6.61
2023-01-19T05:26:22.308Z,6.62
2023-01-19T05:28:50.330Z,6.62
2023-01-19T05:31:18.787Z,6.64
2023-01-19T05:33:46.545Z,6.66
2023-01-19T05:36:13.451Z,6.69
2023-01-19T05:38:40.280Z,6.71
2023-01-19T05:41:07.226Z,6.73
2023-01-19T05:43:34.062Z,6.76
2023-01-19T05:46:00.856Z,6.77
2023-01-19T05:48:27.677Z,6.78
2023-01-19T05:50:57.984Z,6.78
2023-01-19T05:53:24.774Z,6.79
2023-01-19T05:55:51.863Z,6.79
2023-01-19T05:58:18.613Z,6.80
2023-01-19T06:00:45.451Z,6.80
2023-01-19T06:03:12.866Z,6.81
2023-01-19T06:05:39.967Z,6.81
2023-01-19T06:08:07.209Z,6.82
2023-01-19T06:10:34.133Z,6.83
2023-01-19T06:13:01.192Z,6.85
2023-01-19T06:15:28.631Z,6.86
2023-01-19T06:17:55.601Z,6.86
2023-01-19T06:20:22.546Z,6.88
2023-01-19T06:22:49.394Z,6.88
2023-01-19T06:25:16.141Z,6.90
2023-01-19T06:27:46.457Z,6.91
2023-01-19T06:30:14.976Z,6.93
2023-01-19T06:32:41.740Z,6.95
2023-01-19T06:35:09.444Z,6.97
2023-01-19T06:37:37.113Z,6.99
2023-01-19T06:40:05.119Z,7.01
2023-01-19T06:42:32.083Z,7.03
2023-01-19T06:44:59.257Z,7.05
2023-01-19T06:47:26.250Z,7.06
2023-01-19T06:49:53.594Z,7.07
2023-01-19T06:52:21.115Z,7.07
2023-01-19T06:54:48.567Z,7.08
2023-01-19T06:57:16.844Z,7.10
2023-01-19T06:59:44.276Z,7.12
2023-01-19T07:02:26.490Z,7.12
2023-01-19T07:04:54.565Z,7.14
2023-01-19T07:07:22.592Z,7.15
2023-01-19T07:09:49.612Z,7.16
2023-01-19T07:12:21.609Z,7.17
2023-01-19T07:14:49.646Z,7.18
2023-01-19T07:17:16.757Z,7.20
2023-01-19T07:19:43.641Z,7.22
2023-01-19T07:22:10.995Z,7.23
2023-01-19T07:24:38.403Z,7.25
2023-01-19T07:27:06.336Z,7.28
2023-01-19T07:29:33.468Z,7.31
2023-01-19T07:32:01.746Z,7.35
2023-01-19T07:34:28.655Z,7.40
2023-01-19T07:36:58.576Z,7.45
2023-01-19T07:39:25.458Z,7.50
2023-01-19T07:41:52.931Z,7.55
2023-01-19T07:44:23.335Z,7.61
2023-01-19T07:46:51.356Z,7.67
2023-01-19T07:49:18.263Z,7.73
2023-01-19T07:51:45.109Z,7.78
2023-01-19T07:54:12.267Z,7.84
2023-01-19T07:56:41.531Z,7.89
2023-01-19T07:59:10.347Z,7.94
2023-01-19T08:01:38.068Z,8.01
2023-01-19T08:04:06.011Z,8.06
2023-01-19T08:06:34.549Z,8.12
2023-01-19T08:09:01.500Z,8.17
2023-01-19T08:11:28.753Z,8.24
2023-01-19T08:21:35.775Z,8.64
2023-01-19T08:24:02.747Z,8.73
2023-01-19T08:26:34.487Z,8.83
2023-01-19T08:29:03.129Z,8.93
2023-01-19T08:31:30.366Z,9.05
2023-01-19T08:33:57.562Z,9.20
2023-01-19T08:36:25.409Z,9.34
2023-01-19T08:38:52.594Z,9.48
2023-01-19T08:41:19.453Z,9.61
2023-01-19T08:43:46.374Z,9.75
2023-01-19T08:46:17.169Z,9.91
2023-01-19T08:48:48.541Z,10.05
2023-01-19T08:51:15.934Z,10.16
2023-01-19T08:53:43.408Z,10.23
2023-01-19T08:56:14.491Z,10.29
2023-01-19T08:58:42.384Z,10.37
2023-01-19T09:01:09.782Z,10.40
2023-01-19T09:03:37.056Z,10.40
2023-01-19T09:06:09.235Z,10.38
2023-01-19T09:08:36.139Z,10.35
2023-01-19T09:11:03.070Z,10.32
2023-01-19T09:13:30.056Z,10.32
2023-01-19T09:15:56.890Z,10.33
2023-01-19T09:18:23.792Z,10.36
2023-01-19T09:20:51.036Z,10.38
2023-01-19T09:23:19.212Z,10.41
2023-01-19T09:25:46.661Z,10.42
2023-01-19T09:28:15.165Z,10.43
2023-01-19T09:30:42.654Z,10.41
2023-01-19T09:33:12.088Z,10.40
2023-01-19T09:35:39.469Z,10.42
2023-01-19T09:38:10.630Z,10.41
2023-01-19T09:40:42.312Z,10.40
2023-01-19T09:43:40.261Z,10.39
2023-01-19T09:46:12.561Z,10.37
2023-01-19T09:48:45.728Z,10.33
2023-01-19T09:51:39.481Z,10.31
2023-01-19T09:54:30.167Z,10.29
2023-01-19T09:56:56.971Z,10.27
2023-01-19T09:59:25.802Z,10.27
2023-01-19T10:02:18.962Z,10.26
2023-01-19T10:04:53.469Z,10.25
2023-01-19T10:07:33.321Z,10.23
2023-01-19T10:10:06.187Z,10.22
2023-01-19T10:12:43.214Z,10.20
2023-01-19T10:15:35.153Z,10.18
2023-01-19T10:18:18.772Z,10.17
2023-01-19T10:20:55.378Z,10.18
2023-01-19T10:23:30.126Z,10.19
2023-01-19T10:25:57.001Z,10.23
2023-01-19T10:28:24.298Z,10.27
2023-01-19T10:30:51.947Z,10.32
2023-01-19T10:33:18.975Z,10.38
2023-01-19T10:35:48.903Z,10.42
2023-01-19T10:38:16.380Z,10.47
2023-01-19T10:40:48.527Z,10.50
2023-01-19T10:43:36.455Z,10.54
2023-01-19T10:46:23.618Z,10.59
2023-01-19T10:48:51.888Z,10.64
2023-01-19T10:51:19.365Z,10.69
2023-01-19T10:53:55.494Z,10.74
2023-01-19T10:56:24.676Z,10.80
2023-01-19T10:58:51.643Z,10.86
2023-01-19T11:01:21.136Z,10.92
2023-01-19T11:03:48.088Z,10.96
2023-01-19T11:06:18.743Z,10.98
2023-01-19T11:08:46.630Z,11.00
2023-01-19T11:11:13.916Z,11.00
2023-01-19T11:13:41.570Z,11.01
2023-01-19T11:16:15.037Z,11.03
2023-01-19T11:18:41.745Z,11.05
2023-01-19T11:21:13.061Z,11.07
2023-01-19T11:23:44.310Z,11.09
2023-01-19T11:26:16.503Z,11.12
2023-01-19T11:28:46.907Z,11.14
2023-01-19T11:31:14.019Z,11.15
2023-01-19T11:33:49.047Z,11.14
2023-01-19T11:36:21.129Z,11.14
2023-01-19T11:38:50.772Z,11.15
2023-01-19T11:41:23.930Z,11.17
2023-01-19T11:43:55.271Z,11.20
2023-01-19T11:46:24.036Z,11.23
2023-01-19T11:49:02.030Z,11.26
2023-01-19T11:51:34.569Z,11.29
2023-01-19T11:54:01.551Z,11.33
2023-01-19T11:56:29.228Z,11.36
2023-01-19T11:58:58.165Z,11.39
2023-01-19T12:01:29.567Z,11.42
2023-01-19T12:04:16.413Z,11.45
2023-01-19T12:06:47.882Z,11.50
2023-01-19T12:09:20.698Z,11.52
2023-01-19T12:11:53.692Z,11.55
2023-01-19T12:14:29.118Z,11.57
2023-01-19T12:16:57.877Z,11.60
2023-01-19T12:19:54.836Z,11.62
2023-01-19T12:22:22.640Z,11.67
2023-01-19T12:24:55.555Z,11.72
2023-01-19T12:27:44.033Z,11.77
2023-01-19T12:30:18.050Z,11.83
2023-01-19T12:32:45.155Z,11.88
2023-01-19T12:35:50.037Z,11.94
2023-01-19T12:38:37.655Z,12.05
2023-01-19T12:41:20.538Z,12.16
2023-01-19T12:43:48.450Z,12.28
2023-01-19T12:46:29.032Z,12.42
2023-01-19T12:49:02.704Z,12.56
2023-01-19T12:51:29.445Z,12.67
2023-01-19T12:53:57.966Z,12.71
2023-01-19T12:56:30.281Z,12.74
2023-01-19T12:58:57.013Z,12.78
2023-01-19T13:01:25.008Z,12.82
2023-01-19T13:04:09.244Z,12.87
2023-01-19T13:06:48.392Z,12.89
2023-01-19T13:09:38.418Z,12.89
2023-01-19T13:12:14.367Z,12.90
2023-01-19T13:14:42.195Z,12.93
2023-01-19T13:17:52.569Z,12.96
2023-01-19T13:20:24.125Z,12.99
2023-01-19T13:23:14.499Z,12.99
2023-01-19T13:25:41.335Z,13.01
2023-01-19T13:28:09.643Z,13.01
2023-01-19T13:30:36.819Z,13.00
2023-01-19T13:33:18.136Z,12.99
2023-01-19T13:36:03.120Z,12.97
2023-01-19T13:38:29.978Z,12.92
2023-01-19T13:40:56.772Z,12.87
2023-01-19T13:43:33.803Z,12.82
2023-01-19T13:46:00.730Z,12.78
2023-01-19T13:48:27.524Z,12.74
2023-01-19T13:51:02.276Z,12.71
2023-01-19T13:53:30.510Z,12.67
2023-01-19T13:56:07.862Z,12.63
2023-01-19T13:58:34.785Z,12.58
2023-01-19T14:01:02.287Z,12.54
2023-01-19T14:03:29.180Z,12.50
2023-01-19T14:05:56.138Z,12.46
2023-01-19T14:08:23.166Z,12.41
2023-01-19T14:11:01.299Z,12.37
2023-01-19T14:13:30.015Z,12.30
2023-01-19T14:16:16.482Z,12.26
2023-01-19T14:18:43.442Z,12.23
2023-01-19T14:21:12.309Z,12.20
2023-01-19T14:23:43.569Z,12.17
2023-01-19T14:26:46.140Z,12.15
2023-01-19T14:29:24.829Z,12.13
2023-01-19T14:32:01.119Z,12.09
2023-01-19T14:34:48.558Z,12.06
2023-01-19T14:37:28.761Z,12.04
2023-01-19T14:40:08.214Z,12.03
2023-01-19T14:42:43.998Z,12.01
2023-01-19T14:45:21.363Z,12.02
2023-01-19T14:48:04.875Z,12.02
2023-01-19T14:50:33.350Z,12.00
2023-01-19T14:53:21.568Z,11.98
2023-01-19T14:55:54.615Z,11.96
2023-01-19T14:58:22.604Z,11.95
2023-01-19T15:00:49.781Z,11.93
2023-01-19T15:03:16.859Z,11.91
2023-01-19T15:05:45.259Z,11.91
2023-01-19T15:08:17.029Z,11.91
2023-01-19T15:10:43.962Z,11.91
2023-01-19T15:13:19.443Z,11.90
2023-01-19T15:15:46.361Z,11.90
2023-01-19T15:18:25.064Z,11.89
2023-01-19T15:20:52.810Z,11.88
2023-01-19T15:31:03.677Z,11.83
2023-01-19T15:33:30.833Z,11.83
2023-01-19T15:35:57.777Z,11.84
2023-01-19T15:38:24.662Z,11.82
2023-01-19T15:40:51.809Z,11.80
2023-01-19T15:43:18.812Z,11.79
2023-01-19T15:45:55.296Z,11.76
2023-01-19T15:48:22.649Z,11.74
2023-01-19T15:50:49.462Z,11.73
2023-01-19T15:53:18.632Z,11.72
2023-01-19T15:55:49.119Z,11.71
2023-01-19T15:58:16.070Z,11.70
2023-01-19T16:00:42.934Z,11.72
2023-01-19T16:03:10.500Z,11.73
2023-01-19T16:05:42.855Z,11.73
2023-01-19T16:08:11.346Z,11.74
2023-01-19T16:10:38.198Z,11.74
2023-01-19T16:13:05.088Z,11.72
2023-01-19T16:15:34.827Z,11.70
2023-01-19T16:18:01.796Z,11.70
2023-01-19T16:20:28.541Z,11.70
2023-01-19T16:23:00.722Z,11.69
2023-01-19T16:25:33.012Z,11.68
2023-01-19T16:28:00.404Z,11.67
2023-01-19T16:30:27.393Z,11.65
2023-01-19T16:32:54.161Z,11.63
2023-01-19T16:35:20.976Z,11.60
2023-01-19T16:37:50.622Z,11.58
2023-01-19T16:40:17.724Z,11.55
2023-01-19T16:42:47.348Z,11.51
2023-01-19T16:45:14.176Z,11.46
2023-01-19T16:47:41.119Z,11.44
2023-01-19T16:50:11.159Z,11.43
2023-01-19T16:52:38.612Z,11.42
2023-01-19T16:55:09.468Z,11.39
2023-01-19T16:57:39.312Z,11.34
2023-01-19T17:00:07.406Z,11.29
2023-01-19T17:02:34.210Z,11.26
2023-01-19T17:05:01.104Z,11.24
2023-01-19T17:07:28.105Z,11.21
2023-01-19T17:09:54.884Z,11.18
2023-01-19T17:12:21.628Z,11.14
2023-01-19T17:14:48.369Z,11.11
2023-01-19T17:17:15.125Z,11.09
2023-01-19T17:19:42.084Z,11.06
2023-01-19T17:22:09.077Z,11.03
2023-01-19T17:24:35.928Z,11.01
2023-01-19T17:27:02.700Z,10.98
2023-01-19T17:29:29.556Z,10.96
2023-01-19T17:31:56.673Z,10.94
2023-01-19T17:34:23.468Z,10.92
2023-01-19T17:36:50.567Z,10.88
2023-01-19T17:39:18.616Z,10.84
2023-01-19T17:41:45.635Z,10.80
2023-01-19T17:44:12.474Z,10.76
2023-01-19T17:46:39.412Z,10.72
2023-01-19T17:49:07.155Z,10.67
2023-01-19T17:51:34.373Z,10.63
2023-01-19T17:54:01.439Z,10.61
2023-01-19T17:56:30.449Z,10.59
2023-01-19T17:58:57.960Z,10.58
2023-01-19T18:01:26.635Z,10.57
2023-01-19T18:03:53.826Z,10.56
2023-01-19T18:06:21.415Z,10.55
2023-01-19T18:08:48.660Z,10.53
2023-01-19T18:11:16.958Z,10.51
2023-01-19T18:13:44.911Z,10.49
2023-01-19T18:16:14.016Z,10.48
2023-01-19T18:18:41.347Z,10.45
2023-01-19T18:21:09.694Z,10.41
2023-01-19T18:23:36.593Z,10.36
2023-01-19T18:26:05.793Z,10.33
2023-01-19T18:28:33.109Z,10.32
2023-01-19T18:31:00.441Z,10.30
2023-01-19T18:33:28.066Z,10.27
2023-01-19T18:35:55.050Z,10.24
2023-01-19T18:38:22.525Z,10.21
2023-01-19T18:40:49.299Z,10.19
2023-01-19T18:43:16.213Z,10.18
2023-01-19T18:45:43.154Z,10.16
2023-01-19T18:48:10.071Z,10.14
2023-01-19T18:50:37.640Z,10.12
2023-01-19T18:53:04.523Z,10.12
2023-01-19T18:55:31.468Z,10.11
2023-01-19T18:57:58.300Z,10.08
2023-01-19T19:00:25.171Z,10.06
2023-01-19T19:02:52.303Z,10.07
2023-01-19T19:05:19.269Z,10.07
2023-01-19T19:07:46.198Z,10.05
2023-01-19T19:10:13.286Z,10.02
2023-01-19T19:12:40.394Z,10.00
2023-01-19T19:15:08.084Z,9.97
2023-01-19T19:17:35.755Z,9.94
2023-01-19T19:20:03.317Z,9.90
2023-01-19T19:22:30.485Z,9.87
2023-01-19T19:24:57.240Z,9.86
2023-01-19T19:27:24.048Z,9.85
2023-01-19T19:29:50.806Z,9.83
2023-01-19T19:32:20.618Z,9.84
2023-01-19T19:34:52.874Z,9.84
2023-01-19T19:37:20.281Z,9.82
2023-01-19T19:39:47.727Z,9.82
2023-01-19T19:42:14.825Z,9.83
2023-01-19T19:44:41.808Z,9.83
2023-01-19T19:47:08.653Z,9.84
2023-01-19T19:49:35.928Z,9.84
2023-01-19T19:52:02.768Z,9.84
2023-01-19T19:54:29.820Z,9.85
2023-01-19T19:56:56.661Z,9.90
2023-01-19T19:59:23.817Z,9.91
2023-01-19T20:01:53.959Z,9.90
2023-01-19T20:04:23.142Z,9.91
2023-01-19T20:06:50.586Z,9.92
2023-01-19T20:09:18.049Z,9.90
2023-01-19T20:11:46.813Z,9.89
2023-01-19T20:14:13.980Z,9.87
2023-01-19T20:16:40.905Z,9.86
2023-01-19T20:19:08.194Z,9.85
2023-01-19T20:21:39.833Z,9.84
2023-01-19T20:24:10.213Z,9.82
2023-01-19T20:26:40.890Z,9.79
2023-01-19T20:29:07.925Z,9.75
2023-01-19T20:31:36.832Z,9.72
2023-01-19T20:34:05.107Z,9.72
2023-01-19T20:36:32.570Z,9.71
2023-01-19T20:38:59.828Z,9.69
2023-01-19T20:41:27.807Z,9.68
2023-01-19T20:43:54.994Z,9.68
2023-01-19T20:46:21.965Z,9.67
2023-01-19T20:48:53.100Z,9.67
2023-01-19T20:51:20.713Z,9.65
2023-01-19T20:53:47.874Z,9.64
2023-01-19T20:56:15.334Z,9.63
2023-01-19T20:58:42.467Z,9.61
2023-01-19T21:01:14.029Z,9.59
2023-01-19T21:03:41.370Z,9.57
2023-01-19T21:06:08.692Z,9.55
2023-01-19T21:08:35.927Z,9.53
2023-01-19T21:11:03.207Z,9.51
2023-01-19T21:13:30.978Z,9.46
2023-01-19T21:15:58.944Z,9.42
2023-01-19T21:18:28.156Z,9.38
2023-01-19T21:20:57.864Z,9.35
2023-01-19T21:23:26.438Z,9.32
2023-01-19T21:25:55.189Z,9.29
2023-01-19T21:28:23.127Z,9.27
2023-01-19T21:30:51.501Z,9.25
2023-01-19T21:33:19.338Z,9.20
2023-01-19T21:35:56.880Z,9.15
2023-01-19T21:38:25.301Z,9.13
2023-01-19T21:40:52.191Z,9.12
2023-01-19T21:43:20.191Z,9.09
2023-01-19T21:45:47.714Z,9.07
2023-01-19T21:48:15.351Z,9.05
2023-01-19T21:50:42.361Z,9.03
2023-01-19T21:53:11.303Z,8.99
2023-01-19T21:55:39.686Z,8.97
2023-01-19T21:58:06.588Z,8.96
2023-01-19T22:00:33.558Z,8.95
2023-01-19T22:03:04.136Z,8.95
2023-01-19T22:05:36.797Z,8.93
2023-01-19T22:08:06.419Z,8.91
2023-01-19T22:10:37.519Z,8.90
2023-01-19T22:13:06.828Z,8.88
2023-01-19T22:15:33.898Z,8.88
2023-01-19T22:18:02.227Z,8.88
2023-01-19T22:20:29.394Z,8.88
2023-01-19T22:22:56.995Z,8.89
2023-01-19T22:25:27.724Z,8.88
2023-01-19T22:27:55.672Z,8.86
2023-01-19T22:30:22.682Z,8.85
2023-01-19T22:32:50.061Z,8.84
2023-01-19T22:35:17.089Z,8.82
2023-01-19T22:37:43.891Z,8.80
2023-01-19T22:40:11.812Z,8.78
2023-01-19T22:42:38.659Z,8.74
2023-01-19T22:45:06.174Z,8.72
2023-01-19T22:47:33.101Z,8.72
2023-01-19T22:49:59.885Z,8.71
2023-01-19T22:52:26.802Z,8.69
2023-01-19T22:54:57.900Z,8.67
